< Typhoon 199515 1995 Season Typhoon 199517 >
Typhoon 199516 (TED)
General InformationTrack Information on Google MapsDetailed Wind InformationList of All Images || Disaster Info.ResourceGoogle EarthGE AnimationAtom FeedGeoJSON
Detalied Best Track (Time Zone = UTC)
Year Month Day Hour Lat. Long. Pressure (hPa) Wind (kt) Class Image Chart
1995 10 7 00 13.0 126.0 1008 0 2 Image Chart
1995 10 7 06 13.3 125.0 1008 0 2 Image Chart
1995 10 7 12 13.8 123.8 1008 0 2 Image Chart
1995 10 7 18 14.3 122.0 1008 0 2 Image Chart
1995 10 8 00 14.5 120.8 1008 0 2 Image Chart
1995 10 8 06 14.8 119.8 1006 0 2 Image Chart
1995 10 8 12 15.0 118.5 1006 0 2 Image Chart
1995 10 8 18 15.2 117.3 1006 0 2 Image Chart
1995 10 9 00 15.2 116.0 1004 0 2 Image Chart
1995 10 9 06 15.1 114.5 1004 0 2 Image Chart
1995 10 9 12 14.9 113.1 1004 0 2 Image Chart
1995 10 9 18 14.9 112.2 1004 0 2 Image Chart
1995 10 10 00 14.9 111.5 1004 0 2 Image Chart
1995 10 10 06 15.0 111.1 1002 0 2 Image Chart
1995 10 10 12 15.5 110.6 1002 0 2 Image Chart
1995 10 10 18 16.1 110.3 1000 35 3 Image Chart
1995 10 11 00 16.5 109.7 1000 35 3 Image Chart
1995 10 11 06 16.9 109.2 1000 35 3 Image Chart
1995 10 11 12 17.3 108.7 998 40 3 Image Chart
1995 10 11 18 17.7 108.4 998 40 3 Image Chart
1995 10 12 00 18.1 108.2 996 45 3 Image Chart
1995 10 12 06 18.5 108.2 990 50 4 Image Chart
1995 10 12 12 19.0 108.5 990 50 4 Image Chart
1995 10 12 18 19.8 108.6 992 45 3 Image Chart
1995 10 13 00 20.6 108.6 994 45 3 Image Chart
1995 10 13 06 21.5 108.9 996 40 3 Image Chart
1995 10 13 12 22.2 109.5 1000 0 2 Image Chart
1995 10 13 18 22.5 110.2 1004 0 2 Image Chart
1995 10 14 00 22.7 110.8 1006 0 2 Image Chart
1995 10 14 06 22.6 111.4 1006 0 2 Image Chart
1995 10 14 12 22.2 112.5 1008 0 2 Image Chart
Japan Meteorological Agency Best Track Data | Correction Date : 1996-01-19
< Typhoon 199515 1995 Season Typhoon 199517 >

Help